createdAt,value
2018-06-10T00:00:47.923Z,27.20
2018-06-10T00:03:17.820Z,27.20
2018-06-10T00:05:47.861Z,27.20
2018-06-10T00:08:17.683Z,27.20
2018-06-10T00:10:47.787Z,27.20
2018-06-10T00:15:47.481Z,27.20
2018-06-10T00:18:17.377Z,27.20
2018-06-10T00:20:47.359Z,27.20
2018-06-10T00:23:17.566Z,27.20
2018-06-10T00:25:47.531Z,27.20
2018-06-10T00:28:21.652Z,27.20
2018-06-10T00:30:51.688Z,27.20
2018-06-10T00:33:21.616Z,27.20
2018-06-10T00:35:51.626Z,27.20
2018-06-10T00:38:21.599Z,27.20
2018-06-10T00:40:51.677Z,27.20
2018-06-10T00:43:21.555Z,27.20
2018-06-10T00:45:51.657Z,27.20
2018-06-10T00:48:21.595Z,27.20
2018-06-10T00:50:51.637Z,27.20
2018-06-10T00:53:21.622Z,27.20
2018-06-10T00:55:51.689Z,27.20
2018-06-10T00:58:21.505Z,27.20
2018-06-10T01:00:51.461Z,27.20
2018-06-10T01:03:21.572Z,27.20
2018-06-10T01:05:51.569Z,27.20
2018-06-10T01:08:21.410Z,27.20
2018-06-10T01:10:51.589Z,27.20
2018-06-10T01:13:21.580Z,27.20
2018-06-10T01:15:51.554Z,27.20
2018-06-10T01:18:21.423Z,27.20
2018-06-10T01:20:51.374Z,27.20
2018-06-10T01:23:21.299Z,27.20
2018-06-10T01:25:51.277Z,27.20
2018-06-10T01:28:21.476Z,27.20
2018-06-10T01:30:51.430Z,27.20
2018-06-10T01:33:21.668Z,27.20
2018-06-10T01:35:57.640Z,27.20
2018-06-10T01:38:28.435Z,27.20
2018-06-10T01:41:00.022Z,27.20
2018-06-10T01:43:30.101Z,27.10
2018-06-10T01:46:01.662Z,27.20
2018-06-10T01:48:33.117Z,27.20
2018-06-10T01:51:04.441Z,27.20
2018-06-10T01:53:35.527Z,27.20
2018-06-10T01:56:06.463Z,27.20
2018-06-10T01:58:37.768Z,27.20
2018-06-10T02:01:09.515Z,27.20
2018-06-10T02:03:40.850Z,27.20
2018-06-10T02:06:12.192Z,27.20
2018-06-10T02:08:42.539Z,27.20
2018-06-10T02:11:14.075Z,27.20
2018-06-10T02:13:43.948Z,27.20
2018-06-10T02:16:13.926Z,27.10
2018-06-10T02:18:43.970Z,27.20
2018-06-10T02:21:13.986Z,27.20
2018-06-10T02:23:43.793Z,27.20
2018-06-10T02:26:13.804Z,27.10
2018-06-10T02:28:43.727Z,27.20
2018-06-10T02:31:13.591Z,27.20
2018-06-10T02:33:43.459Z,27.20
2018-06-10T02:36:13.466Z,27.20
2018-06-10T02:38:43.288Z,27.20
2018-06-10T02:41:13.340Z,27.20
2018-06-10T02:43:43.247Z,27.20
2018-06-10T02:46:13.125Z,27.20
2018-06-10T02:48:43.346Z,27.20
2018-06-10T02:51:13.192Z,27.20
2018-06-10T02:53:43.114Z,27.20
2018-06-10T02:56:13.123Z,27.20
2018-06-10T02:58:43.045Z,27.10
2018-06-10T03:01:13.151Z,27.20
2018-06-10T03:03:43.079Z,27.10
2018-06-10T03:06:12.971Z,27.20
2018-06-10T03:08:42.964Z,27.20
2018-06-10T03:11:13.116Z,27.20
2018-06-10T03:13:43.083Z,27.20
2018-06-10T03:16:12.974Z,27.10
2018-06-10T03:18:42.867Z,27.10
2018-06-10T03:21:12.940Z,27.10
2018-06-10T03:23:42.974Z,27.20
2018-06-10T03:26:12.904Z,27.20
2018-06-10T03:28:43.036Z,27.10
2018-06-10T03:31:13.055Z,27.10
2018-06-10T03:33:43.060Z,27.20
2018-06-10T03:36:12.926Z,27.20
2018-06-10T03:38:42.951Z,27.10
2018-06-10T03:41:12.971Z,27.10
2018-06-10T03:43:43.001Z,27.10
2018-06-10T03:46:12.814Z,27.10
2018-06-10T03:48:42.909Z,27.10
2018-06-10T03:51:13.428Z,27.20
2018-06-10T03:56:12.545Z,27.10
2018-06-10T03:58:42.537Z,27.10
2018-06-10T04:01:12.425Z,27.10
2018-06-10T04:03:42.359Z,27.10
2018-06-10T04:06:12.423Z,27.10
2018-06-10T04:08:42.581Z,27.10
2018-06-10T04:11:12.464Z,27.10
2018-06-10T04:13:42.573Z,27.10
2018-06-10T04:16:12.540Z,27.10
2018-06-10T04:18:42.420Z,27.10
2018-06-10T04:21:12.338Z,27.10
2018-06-10T04:23:42.473Z,27.10
2018-06-10T04:26:12.372Z,27.10
2018-06-10T04:28:42.417Z,27.10
2018-06-10T04:31:12.406Z,27.20
2018-06-10T04:33:42.496Z,27.10
2018-06-10T04:36:12.409Z,27.10
2018-06-10T04:38:42.579Z,27.10
2018-06-10T04:41:12.472Z,27.10
2018-06-10T04:43:42.497Z,27.10
2018-06-10T04:46:12.576Z,27.10
2018-06-10T04:48:42.417Z,27.10
2018-06-10T04:51:12.546Z,27.10
2018-06-10T04:53:42.662Z,27.10
2018-06-10T04:56:12.664Z,27.10
2018-06-10T04:58:42.699Z,27.10
2018-06-10T05:01:12.730Z,27.10
2018-06-10T05:03:42.735Z,27.10
2018-06-10T05:06:12.921Z,27.10
2018-06-10T05:08:42.975Z,27.10
2018-06-10T05:11:12.905Z,27.10
2018-06-10T05:13:42.809Z,27.10
2018-06-10T05:16:12.693Z,27.10
2018-06-10T05:18:42.592Z,27.10
2018-06-10T05:21:12.492Z,27.20
2018-06-10T05:23:42.542Z,27.10
2018-06-10T05:26:12.378Z,27.10
2018-06-10T05:28:42.295Z,27.10
2018-06-10T05:31:12.191Z,27.10
2018-06-10T05:33:42.334Z,27.10
2018-06-10T05:36:12.367Z,27.10
2018-06-10T05:38:42.369Z,27.10
2018-06-10T05:41:12.333Z,27.10
2018-06-10T05:43:42.325Z,27.10
2018-06-10T05:46:12.111Z,27.10
2018-06-10T05:48:42.032Z,27.10
2018-06-10T05:51:12.060Z,27.10
2018-06-10T05:53:42.052Z,27.10
2018-06-10T05:56:12.072Z,27.10
2018-06-10T05:58:41.940Z,27.10
2018-06-10T06:01:11.869Z,27.10
2018-06-10T06:03:41.761Z,27.10
2018-06-10T06:06:11.848Z,27.10
2018-06-10T06:08:41.657Z,27.10
2018-06-10T06:11:11.450Z,27.10
2018-06-10T06:13:41.642Z,27.10
2018-06-10T06:16:11.715Z,27.10
2018-06-10T06:18:41.711Z,27.00
2018-06-10T06:21:11.608Z,27.00
2018-06-10T06:23:41.512Z,27.00
2018-06-10T06:26:11.616Z,27.00
2018-06-10T06:28:41.732Z,27.00
2018-06-10T06:31:11.809Z,27.00
2018-06-10T06:33:41.873Z,27.00
2018-06-10T06:36:11.895Z,27.00
2018-06-10T06:38:42.105Z,27.00
2018-06-10T06:41:12.363Z,27.00
2018-06-10T06:43:42.269Z,27.00
2018-06-10T06:46:12.498Z,27.00
2018-06-10T06:48:42.502Z,27.00
2018-06-10T06:51:12.446Z,27.00
2018-06-10T06:53:42.287Z,27.00
2018-06-10T06:56:12.471Z,27.00
2018-06-10T06:58:42.591Z,27.00
2018-06-10T07:01:12.571Z,26.90
2018-06-10T07:03:42.750Z,26.90
2018-06-10T07:06:12.824Z,26.90
2018-06-10T07:08:42.831Z,26.90
2018-06-10T07:11:12.839Z,26.90
2018-06-10T07:13:42.730Z,26.90
2018-06-10T07:16:12.716Z,26.80
2018-06-10T07:18:42.776Z,26.80
2018-06-10T07:21:12.825Z,26.80
2018-06-10T07:23:42.835Z,26.80
2018-06-10T07:26:12.659Z,26.70
2018-06-10T07:28:42.797Z,26.80
2018-06-10T07:31:12.695Z,26.70
2018-06-10T07:33:42.457Z,26.70
2018-06-10T07:36:12.336Z,26.70
2018-06-10T07:38:42.224Z,26.70
2018-06-10T07:41:12.552Z,26.70
2018-06-10T07:43:42.695Z,26.80
2018-06-10T07:46:12.816Z,26.80
2018-06-10T07:48:42.868Z,26.80
2018-06-10T07:51:12.723Z,26.80
2018-06-10T07:53:42.701Z,26.80
2018-06-10T07:56:14.177Z,26.80
2018-06-10T07:58:44.851Z,26.80
2018-06-10T08:01:14.966Z,26.90
2018-06-10T08:03:45.256Z,26.90
2018-06-10T08:06:15.093Z,26.90
2018-06-10T08:08:45.714Z,26.90
2018-06-10T08:11:15.900Z,26.80
2018-06-10T08:13:46.069Z,26.80
2018-06-10T08:16:16.178Z,26.80
2018-06-10T08:18:46.205Z,26.80
2018-06-10T08:21:19.362Z,26.80
2018-06-10T08:23:59.134Z,26.80
2018-06-10T08:26:29.707Z,26.80
2018-06-10T08:28:59.766Z,26.70
2018-06-10T08:31:29.976Z,26.70
2018-06-10T08:33:59.904Z,26.70
2018-06-10T08:36:29.985Z,26.70
2018-06-10T08:38:59.864Z,26.60
2018-06-10T08:41:30.020Z,26.70
2018-06-10T08:44:00.129Z,26.60
2018-06-10T08:46:30.314Z,26.60
2018-06-10T08:49:00.420Z,26.50
2018-06-10T08:51:30.398Z,26.50
2018-06-10T08:54:00.385Z,26.50
2018-06-10T08:56:30.424Z,26.60
2018-06-10T08:59:00.282Z,26.60
2018-06-10T09:01:30.372Z,26.60
2018-06-10T09:04:00.047Z,26.60
2018-06-10T09:06:29.864Z,26.70
2018-06-10T09:08:59.872Z,26.60
2018-06-10T09:11:29.554Z,26.70
2018-06-10T09:13:59.201Z,26.70
2018-06-10T09:16:28.894Z,26.70
2018-06-10T09:18:58.898Z,26.60
2018-06-10T09:21:28.784Z,26.60
2018-06-10T09:23:58.719Z,26.70
2018-06-10T09:26:28.430Z,26.70
2018-06-10T09:28:58.605Z,26.70
2018-06-10T09:31:28.537Z,26.70
2018-06-10T09:33:58.599Z,26.70
2018-06-10T09:36:28.590Z,26.70
2018-06-10T09:38:59.126Z,26.80
2018-06-10T09:41:29.150Z,26.80
2018-06-10T09:43:59.261Z,26.80
2018-06-10T09:46:29.338Z,26.80
2018-06-10T09:48:59.192Z,26.80
2018-06-10T09:51:29.139Z,26.80
2018-06-10T09:53:59.104Z,26.80
2018-06-10T09:56:29.717Z,26.80
2018-06-10T09:58:59.907Z,26.80
2018-06-10T10:01:29.769Z,26.80
2018-06-10T10:03:59.676Z,26.80
2018-06-10T10:06:29.659Z,26.80
2018-06-10T10:08:59.650Z,26.80
2018-06-10T10:11:30.201Z,26.80
2018-06-10T10:14:00.148Z,26.80
2018-06-10T10:16:30.185Z,26.80
2018-06-10T10:19:00.128Z,26.80
2018-06-10T10:21:30.320Z,26.90
2018-06-10T10:24:01.463Z,26.90
2018-06-10T10:26:33.266Z,26.90
2018-06-10T10:29:03.458Z,26.90
2018-06-10T10:31:33.467Z,26.90
2018-06-10T10:34:03.489Z,26.90
2018-06-10T10:36:33.479Z,26.90
2018-06-10T10:39:03.792Z,26.90
2018-06-10T10:41:33.999Z,26.90
2018-06-10T10:44:04.039Z,26.90
2018-06-10T10:46:34.069Z,26.90
2018-06-10T10:49:04.000Z,27.00
2018-06-10T10:51:33.979Z,27.00
2018-06-10T10:54:03.941Z,27.00
2018-06-10T10:56:34.067Z,27.00
2018-06-10T10:59:04.050Z,27.10
2018-06-10T11:01:34.065Z,27.10
2018-06-10T11:04:04.084Z,27.10
2018-06-10T11:06:34.045Z,27.10
2018-06-10T11:09:04.704Z,27.10
2018-06-10T11:11:34.639Z,27.20
2018-06-10T11:14:04.532Z,27.20
2018-06-10T11:16:34.487Z,27.20
2018-06-10T11:19:04.387Z,27.20
2018-06-10T11:21:34.269Z,27.20
2018-06-10T11:24:04.207Z,27.20
2018-06-10T11:26:34.165Z,27.20
2018-06-10T11:29:04.219Z,27.20
2018-06-10T11:31:34.335Z,27.20
2018-06-10T11:34:04.286Z,27.20
2018-06-10T11:36:34.261Z,27.20
2018-06-10T11:39:04.581Z,27.20
2018-06-10T11:41:34.620Z,27.30
2018-06-10T11:44:04.774Z,27.20
2018-06-10T11:46:34.914Z,27.20
2018-06-10T11:49:04.811Z,27.20
2018-06-10T11:51:34.845Z,27.20
2018-06-10T11:54:04.733Z,27.20
2018-06-10T11:56:34.774Z,27.20
2018-06-10T11:59:04.786Z,27.20
2018-06-10T12:01:34.966Z,27.20
2018-06-10T12:04:04.814Z,27.20
2018-06-10T12:06:34.997Z,27.20
2018-06-10T12:09:05.403Z,27.20
2018-06-10T12:11:35.395Z,27.20
2018-06-10T12:14:05.514Z,27.20
2018-06-10T12:16:35.822Z,27.20
2018-06-10T12:19:05.802Z,27.20
2018-06-10T12:21:35.894Z,27.30
2018-06-10T12:24:06.065Z,27.30
2018-06-10T12:26:36.136Z,27.30
2018-06-10T12:29:06.097Z,27.30
2018-06-10T12:31:36.334Z,27.30
2018-06-10T12:34:06.398Z,27.30
2018-06-10T12:36:36.606Z,27.30
2018-06-10T12:39:08.895Z,27.30
2018-06-10T12:41:39.133Z,27.30
2018-06-10T12:44:09.208Z,27.30
2018-06-10T12:46:39.220Z,27.30
2018-06-10T12:49:09.582Z,27.30
2018-06-10T12:51:39.886Z,27.30
2018-06-10T12:54:09.943Z,27.30
2018-06-10T12:56:40.026Z,27.30
2018-06-10T12:59:10.179Z,27.30
2018-06-10T13:01:40.210Z,27.30
2018-06-10T13:04:10.253Z,27.30
2018-06-10T13:06:40.242Z,27.30
2018-06-10T13:09:10.379Z,27.30
2018-06-10T13:11:40.450Z,27.30
2018-06-10T13:14:10.380Z,27.30
2018-06-10T13:16:40.370Z,27.30
2018-06-10T13:19:10.502Z,27.30
2018-06-10T13:21:40.547Z,27.30
2018-06-10T13:24:10.468Z,27.40
2018-06-10T13:26:40.469Z,27.40
2018-06-10T13:29:10.299Z,27.40
2018-06-10T13:31:40.209Z,27.40
2018-06-10T13:34:10.225Z,27.40
2018-06-10T13:36:40.193Z,27.40
2018-06-10T13:39:10.281Z,27.50
2018-06-10T13:41:40.175Z,27.50
2018-06-10T13:44:10.052Z,27.50
2018-06-10T13:46:40.014Z,27.50
2018-06-10T13:49:09.915Z,27.50
2018-06-10T13:51:39.828Z,27.50
2018-06-10T13:54:09.825Z,27.50
2018-06-10T13:56:39.779Z,27.50
2018-06-10T13:59:09.865Z,27.50
2018-06-10T14:01:39.784Z,27.50
2018-06-10T14:04:09.720Z,27.60
2018-06-10T14:06:39.678Z,27.60
2018-06-10T14:09:09.627Z,27.60
2018-06-10T14:11:39.535Z,27.60
2018-06-10T14:14:09.555Z,27.60
2018-06-10T14:16:39.458Z,27.60
2018-06-10T14:19:09.478Z,27.60
2018-06-10T14:21:39.396Z,27.60
2018-06-10T14:24:09.414Z,27.60
2018-06-10T14:26:39.464Z,27.60
2018-06-10T14:29:09.307Z,27.60
2018-06-10T14:31:39.361Z,27.60
2018-06-10T14:34:09.300Z,27.60
2018-06-10T14:36:39.448Z,27.60
2018-06-10T14:39:10.032Z,27.60
2018-06-10T14:41:40.171Z,27.60
2018-06-10T14:44:10.014Z,27.60
2018-06-10T14:46:40.093Z,27.60
2018-06-10T14:49:10.100Z,27.60
2018-06-10T14:51:40.309Z,27.60
2018-06-10T14:54:10.658Z,27.60
2018-06-10T14:56:40.703Z,27.60
2018-06-10T14:59:10.688Z,27.60
2018-06-10T15:01:40.615Z,27.60
2018-06-10T15:04:10.606Z,27.70
2018-06-10T15:06:40.518Z,27.70
2018-06-10T15:09:10.818Z,27.70
2018-06-10T15:11:40.536Z,27.70
2018-06-10T15:14:10.552Z,27.70
2018-06-10T15:16:40.581Z,27.70
2018-06-10T15:19:10.650Z,27.70
2018-06-10T15:21:40.631Z,27.70
2018-06-10T15:24:10.660Z,27.70
2018-06-10T15:26:40.537Z,27.60
2018-06-10T15:29:10.550Z,27.60
2018-06-10T15:31:40.637Z,27.50
2018-06-10T15:34:10.561Z,27.50
2018-06-10T15:36:40.553Z,27.50
2018-06-10T15:39:10.603Z,27.40
2018-06-10T15:41:40.550Z,27.40
2018-06-10T15:44:10.521Z,27.40
2018-06-10T15:46:40.493Z,27.30
2018-06-10T15:49:10.427Z,27.30
2018-06-10T15:51:40.501Z,27.30
2018-06-10T15:54:10.547Z,27.30
2018-06-10T15:56:40.537Z,27.30
2018-06-10T15:59:10.725Z,27.20
2018-06-10T16:01:40.907Z,27.20
2018-06-10T16:04:10.910Z,27.20
2018-06-10T16:06:40.783Z,27.20
2018-06-10T16:09:11.148Z,27.20
2018-06-10T16:11:41.220Z,27.20
2018-06-10T16:14:11.216Z,27.20
2018-06-10T16:16:41.337Z,27.30
2018-06-10T16:19:11.322Z,27.20
2018-06-10T16:21:41.346Z,27.20
2018-06-10T16:24:11.459Z,27.20
2018-06-10T16:26:41.371Z,27.20
2018-06-10T16:29:11.370Z,27.20
2018-06-10T16:31:41.397Z,27.10
2018-06-10T16:34:11.447Z,27.10
2018-06-10T16:36:41.588Z,27.10
2018-06-10T16:39:11.616Z,27.10
2018-06-10T16:41:41.646Z,27.10
2018-06-10T16:44:11.768Z,27.10
2018-06-10T16:46:41.776Z,27.20
2018-06-10T16:49:11.704Z,27.20
2018-06-10T16:51:41.838Z,27.20
2018-06-10T16:54:11.821Z,27.30
2018-06-10T16:56:41.902Z,27.30
2018-06-10T16:59:11.902Z,27.30
2018-06-10T17:01:41.979Z,27.30
2018-06-10T17:04:12.089Z,27.30
2018-06-10T17:06:41.800Z,27.30
2018-06-10T17:09:11.718Z,27.20
2018-06-10T17:11:42.730Z,27.20
2018-06-10T17:14:13.045Z,27.20
2018-06-10T17:16:43.038Z,27.10
2018-06-10T17:19:13.490Z,27.10
2018-06-10T17:21:43.506Z,27.10
2018-06-10T17:24:14.194Z,27.00
2018-06-10T17:26:44.776Z,27.00
2018-06-10T17:29:14.525Z,27.00
2018-06-10T17:31:44.969Z,27.00
2018-06-10T17:34:15.731Z,26.90
2018-06-10T17:36:46.355Z,26.90
2018-06-10T17:39:16.701Z,26.90
2018-06-10T17:41:47.480Z,26.90
2018-06-10T17:44:17.699Z,26.80
2018-06-10T17:46:47.889Z,26.80
2018-06-10T17:49:18.180Z,26.80
2018-06-10T17:51:48.594Z,26.80
2018-06-10T17:54:18.828Z,26.80
2018-06-10T17:56:48.841Z,26.80
2018-06-10T17:59:19.657Z,26.80
2018-06-10T18:01:50.256Z,26.70
2018-06-10T18:04:20.923Z,26.70
2018-06-10T18:06:51.261Z,26.70
2018-06-10T18:09:22.148Z,26.80
2018-06-10T18:11:52.702Z,26.80
2018-06-10T18:14:22.951Z,26.80
2018-06-10T18:16:52.889Z,26.80
2018-06-10T18:19:22.949Z,26.80
2018-06-10T18:21:52.958Z,26.80
2018-06-10T18:24:22.888Z,26.80
2018-06-10T18:26:52.910Z,26.80
2018-06-10T18:29:22.841Z,26.80
2018-06-10T18:31:52.889Z,26.80
2018-06-10T18:34:22.918Z,26.80
2018-06-10T18:36:53.002Z,26.80
2018-06-10T18:39:22.941Z,26.80
2018-06-10T18:41:53.194Z,26.80
2018-06-10T18:44:23.130Z,26.80
2018-06-10T18:46:53.239Z,26.70
2018-06-10T18:49:23.216Z,26.70
2018-06-10T18:51:53.367Z,26.70
2018-06-10T18:54:23.246Z,26.70
2018-06-10T18:56:53.504Z,26.70
2018-06-10T18:59:23.418Z,26.80
2018-06-10T19:01:53.407Z,26.80
2018-06-10T19:04:23.464Z,26.90
2018-06-10T19:06:53.504Z,26.90
2018-06-10T19:09:23.556Z,26.90
2018-06-10T19:11:53.715Z,27.00
2018-06-10T19:14:23.716Z,27.00
2018-06-10T19:16:53.868Z,27.00
2018-06-10T19:19:23.891Z,27.00
2018-06-10T19:21:54.073Z,27.00
2018-06-10T19:24:24.212Z,27.10
2018-06-10T19:26:54.203Z,27.10
2018-06-10T19:29:24.187Z,27.10
2018-06-10T19:31:54.138Z,27.10
2018-06-10T19:34:24.097Z,27.10
2018-06-10T19:36:54.084Z,27.10
2018-06-10T19:39:24.117Z,27.10
2018-06-10T19:41:54.260Z,27.10
2018-06-10T19:44:24.258Z,27.10
2018-06-10T19:46:54.478Z,27.10
2018-06-10T19:49:24.531Z,27.10
2018-06-10T19:51:54.685Z,27.10
2018-06-10T19:54:24.802Z,27.10
2018-06-10T19:56:55.026Z,27.10
2018-06-10T19:59:24.974Z,27.10
2018-06-10T20:01:55.161Z,27.10
2018-06-10T20:04:25.220Z,27.10
2018-06-10T20:06:55.227Z,27.10
2018-06-10T20:09:25.153Z,27.10
2018-06-10T20:11:55.280Z,27.10
2018-06-10T20:14:25.236Z,27.10
2018-06-10T20:16:55.368Z,27.10
2018-06-10T20:19:25.332Z,27.10
2018-06-10T20:21:55.410Z,27.10
2018-06-10T20:24:25.497Z,27.10
2018-06-10T20:26:55.619Z,27.10
2018-06-10T20:29:25.505Z,27.10
2018-06-10T20:31:55.510Z,27.10
2018-06-10T20:34:25.439Z,27.10
2018-06-10T20:36:55.503Z,27.10
2018-06-10T20:39:25.549Z,27.10
2018-06-10T20:41:55.634Z,27.10
2018-06-10T20:44:25.558Z,27.10
2018-06-10T20:46:55.547Z,27.10
2018-06-10T20:49:25.516Z,27.10
2018-06-10T20:51:55.690Z,27.10
2018-06-10T20:54:25.732Z,27.10
2018-06-10T20:56:55.917Z,27.10
2018-06-10T20:59:25.785Z,27.10
2018-06-10T21:01:55.679Z,27.10
2018-06-10T21:04:25.868Z,27.10
2018-06-10T21:06:55.850Z,27.10
2018-06-10T21:09:25.761Z,27.10
2018-06-10T21:11:55.794Z,27.10
2018-06-10T21:14:26.203Z,27.10
2018-06-10T21:16:56.301Z,27.10
2018-06-10T21:19:26.402Z,27.10
2018-06-10T21:21:56.461Z,27.10
2018-06-10T21:24:26.681Z,27.10
2018-06-10T21:26:56.650Z,27.10
2018-06-10T21:29:26.627Z,27.10
2018-06-10T21:31:56.467Z,27.10
2018-06-10T21:34:26.393Z,27.10
2018-06-10T21:36:56.452Z,27.10
2018-06-10T21:39:26.529Z,27.20
2018-06-10T21:41:56.449Z,27.20
2018-06-10T21:44:26.478Z,27.20
2018-06-10T21:46:56.434Z,27.20
2018-06-10T21:49:26.496Z,27.20
2018-06-10T21:51:56.349Z,27.20
2018-06-10T21:54:26.236Z,27.20
2018-06-10T21:56:56.190Z,27.20
2018-06-10T21:59:26.069Z,27.10
2018-06-10T22:01:56.219Z,27.20
2018-06-10T22:04:26.127Z,27.20
2018-06-10T22:06:56.049Z,27.20
2018-06-10T22:09:25.830Z,27.20
2018-06-10T22:11:55.918Z,27.20
2018-06-10T22:14:26.024Z,27.20
2018-06-10T22:16:55.916Z,27.20
2018-06-10T22:19:25.815Z,27.20
2018-06-10T22:21:55.727Z,27.20
2018-06-10T22:24:25.666Z,27.10
2018-06-10T22:26:55.565Z,27.10
2018-06-10T22:29:25.554Z,27.10
2018-06-10T22:31:55.635Z,27.10
2018-06-10T22:34:25.914Z,27.10
2018-06-10T22:36:56.150Z,27.10
2018-06-10T22:39:26.082Z,27.10
2018-06-10T22:41:56.105Z,27.00
2018-06-10T22:44:26.191Z,27.00
2018-06-10T22:46:56.061Z,27.00
2018-06-10T22:49:26.226Z,27.00
2018-06-10T22:51:56.121Z,27.00
2018-06-10T22:54:47.122Z,27.00
2018-06-10T22:57:16.951Z,27.00
2018-06-10T22:59:46.969Z,27.00
2018-06-10T23:02:16.625Z,27.00
2018-06-10T23:04:46.665Z,27.00
2018-06-10T23:07:16.850Z,27.00
2018-06-10T23:09:46.778Z,27.00
2018-06-10T23:12:16.816Z,27.00
2018-06-10T23:14:46.937Z,27.00
2018-06-10T23:17:16.998Z,27.00
2018-06-10T23:19:46.949Z,27.00
2018-06-10T23:22:17.000Z,27.00
2018-06-10T23:24:46.826Z,27.00
2018-06-10T23:27:16.915Z,27.00
2018-06-10T23:29:46.896Z,27.00
2018-06-10T23:32:16.901Z,27.00
2018-06-10T23:34:46.840Z,27.00
2018-06-10T23:37:17.019Z,27.00
2018-06-10T23:39:47.018Z,27.00
2018-06-10T23:42:17.157Z,27.00
2018-06-10T23:44:47.207Z,27.00
2018-06-10T23:47:17.215Z,27.00
2018-06-10T23:49:47.136Z,27.00
2018-06-10T23:52:17.316Z,27.00
2018-06-10T23:54:47.239Z,27.00
2018-06-10T23:57:17.381Z,27.00
2018-06-10T23:59:47.269Z,26.90
